McIntosh, New Mexico
Current Conditions -  °F | °C
As of 4:35 PM on Monday 22 Dec 2014 (Local Time) from K0E0 Reporting Station
Clear Clear  
Wind Chill: 34°   Ceiling: Unl
Heat Index: 43°   Visibility: 10mi
Dew Point: 30°   Wind: 23mph
Humidity: 59%   Direction: 290°WNW
Pressure: 29.71"   Gusts: 28mph
Location:  34.86°N, 106.05°W
Report Text: K0E0 222335Z AUTO 29020G24KT 10SM CLR 06/M01 A2971 RMK AO2 T00631012
Loading
Personal Weather Stations






























Interactive Weather Map New forecast layout! Learn more

10-Day Weather Forecast

Advertisements
Track Severe Weather on mobile